Terminal Aerodrome Forecast
Issued by NWS Jackson, MS

Home | Current Version | Previous Version | Text Only | Print | Product List | Glossary On
Versions: 1 2 3 4 5 6 7 8 9 10 11 12 13 14
630
FTUS44 KJAN 140520
TAFJAN
TAF
KJAN 140520Z 1406/1506 11006KT P6SM FEW050
     FM141200 15011KT P6SM OVC050
     FM150400 16011KT P6SM OVC025=

USA.gov is the U.S. government's official web portal to all federal, state and local government web resources and services.